sensor_id;sensor_type;location;lat;lon;timestamp;P1;durP1;ratioP1;P2;durP2;ratioP2
76292;SDS011;67256;51.154;4.164;2023-02-24T00:01:45;17.75;;;4.07;;
76292;SDS011;67256;51.154;4.164;2023-02-24T00:04:16;26.70;;;5.00;;
76292;SDS011;67256;51.154;4.164;2023-02-24T00:06:44;24.33;;;6.00;;
76292;SDS011;67256;51.154;4.164;2023-02-24T00:11:43;22.45;;;5.38;;
76292;SDS011;67256;51.154;4.164;2023-02-24T00:14:12;22.73;;;4.72;;
76292;SDS011;67256;51.154;4.164;2023-02-24T00:16:41;25.75;;;4.72;;
76292;SDS011;67256;51.154;4.164;2023-02-24T00:19:11;16.10;;;4.65;;
76292;SDS011;67256;51.154;4.164;2023-02-24T00:21:40;23.38;;;4.65;;
76292;SDS011;67256;51.154;4.164;2023-02-24T00:24:07;28.58;;;5.90;;
76292;SDS011;67256;51.154;4.164;2023-02-24T00:26:34;17.48;;;4.32;;
76292;SDS011;67256;51.154;4.164;2023-02-24T00:29:00;17.50;;;3.97;;
76292;SDS011;67256;51.154;4.164;2023-02-24T00:31:29;28.08;;;4.55;;
76292;SDS011;67256;51.154;4.164;2023-02-24T00:33:55;18.80;;;4.03;;
76292;SDS011;67256;51.154;4.164;2023-02-24T00:36:26;21.92;;;4.97;;
76292;SDS011;67256;51.154;4.164;2023-02-24T00:38:57;27.10;;;3.80;;
76292;SDS011;67256;51.154;4.164;2023-02-24T00:41:28;26.73;;;4.80;;
76292;SDS011;67256;51.154;4.164;2023-02-24T00:43:57;19.27;;;3.90;;
76292;SDS011;67256;51.154;4.164;2023-02-24T00:46:30;18.42;;;4.07;;
76292;SDS011;67256;51.154;4.164;2023-02-24T00:49:00;21.05;;;3.92;;
76292;SDS011;67256;51.154;4.164;2023-02-24T00:53:57;21.05;;;3.88;;
76292;SDS011;67256;51.154;4.164;2023-02-24T00:56:25;26.05;;;5.35;;
76292;SDS011;67256;51.154;4.164;2023-02-24T00:58:53;26.02;;;4.53;;
76292;SDS011;67256;51.154;4.164;2023-02-24T01:01:20;21.23;;;3.80;;
76292;SDS011;67256;51.154;4.164;2023-02-24T01:03:48;20.50;;;5.03;;
76292;SDS011;67256;51.154;4.164;2023-02-24T01:06:18;20.92;;;4.97;;
76292;SDS011;67256;51.154;4.164;2023-02-24T01:08:45;26.58;;;3.70;;
76292;SDS011;67256;51.154;4.164;2023-02-24T01:11:31;27.55;;;4.88;;
76292;SDS011;67256;51.154;4.164;2023-02-24T01:14:17;20.70;;;4.65;;
76292;SDS011;67256;51.154;4.164;2023-02-24T01:16:45;18.27;;;4.17;;
76292;SDS011;67256;51.154;4.164;2023-02-24T01:19:18;28.30;;;5.03;;
76292;SDS011;67256;51.154;4.164;2023-02-24T01:21:45;18.90;;;3.65;;
76292;SDS011;67256;51.154;4.164;2023-02-24T01:24:12;17.42;;;3.25;;
76292;SDS011;67256;51.154;4.164;2023-02-24T01:26:41;22.38;;;3.90;;
76292;SDS011;67256;51.154;4.164;2023-02-24T01:29:08;23.77;;;4.15;;
76292;SDS011;67256;51.154;4.164;2023-02-24T01:31:35;16.02;;;4.35;;
76292;SDS011;67256;51.154;4.164;2023-02-24T01:34:03;16.65;;;3.35;;
76292;SDS011;67256;51.154;4.164;2023-02-24T01:36:30;13.25;;;2.95;;
76292;SDS011;67256;51.154;4.164;2023-02-24T01:38:57;15.77;;;3.55;;
76292;SDS011;67256;51.154;4.164;2023-02-24T01:41:24;12.93;;;2.70;;
76292;SDS011;67256;51.154;4.164;2023-02-24T01:44:03;15.50;;;4.45;;
76292;SDS011;67256;51.154;4.164;2023-02-24T01:46:39;18.30;;;3.35;;
76292;SDS011;67256;51.154;4.164;2023-02-24T01:49:12;12.80;;;3.15;;
76292;SDS011;67256;51.154;4.164;2023-02-24T01:51:44;27.27;;;4.68;;
76292;SDS011;67256;51.154;4.164;2023-02-24T01:54:27;22.85;;;3.60;;
76292;SDS011;67256;51.154;4.164;2023-02-24T01:57:03;16.80;;;5.10;;
76292;SDS011;67256;51.154;4.164;2023-02-24T01:59:32;17.13;;;3.83;;
76292;SDS011;67256;51.154;4.164;2023-02-24T02:02:00;15.38;;;4.07;;
76292;SDS011;67256;51.154;4.164;2023-02-24T02:07:17;17.00;;;4.35;;
76292;SDS011;67256;51.154;4.164;2023-02-24T02:09:46;17.52;;;4.47;;
76292;SDS011;67256;51.154;4.164;2023-02-24T02:12:14;20.95;;;4.57;;
76292;SDS011;67256;51.154;4.164;2023-02-24T02:14:42;23.70;;;4.65;;
76292;SDS011;67256;51.154;4.164;2023-02-24T02:45:36;24.67;;;7.13;;
76292;SDS011;67256;51.154;4.164;2023-02-24T02:48:15;23.08;;;4.50;;
76292;SDS011;67256;51.154;4.164;2023-02-24T02:50:51;19.95;;;5.03;;
76292;SDS011;67256;51.154;4.164;2023-02-24T02:53:24;17.23;;;4.25;;
76292;SDS011;67256;51.154;4.164;2023-02-24T02:56:14;15.77;;;4.47;;
76292;SDS011;67256;51.154;4.164;2023-02-24T02:58:50;17.33;;;3.85;;
76292;SDS011;67256;51.154;4.164;2023-02-24T03:01:24;22.08;;;4.40;;
76292;SDS011;67256;51.154;4.164;2023-02-24T03:03:54;20.13;;;4.43;;
76292;SDS011;67256;51.154;4.164;2023-02-24T03:06:25;15.77;;;4.15;;
76292;SDS011;67256;51.154;4.164;2023-02-24T03:09:11;17.88;;;5.05;;
76292;SDS011;67256;51.154;4.164;2023-02-24T03:11:46;20.38;;;4.20;;
76292;SDS011;67256;51.154;4.164;2023-02-24T03:14:24;23.50;;;4.70;;
76292;SDS011;67256;51.154;4.164;2023-02-24T03:16:55;22.42;;;4.18;;
76292;SDS011;67256;51.154;4.164;2023-02-24T03:19:25;14.48;;;3.50;;
76292;SDS011;67256;51.154;4.164;2023-02-24T03:24:50;12.35;;;3.47;;
76292;SDS011;67256;51.154;4.164;2023-02-24T03:27:22;19.65;;;4.10;;
76292;SDS011;67256;51.154;4.164;2023-02-24T03:30:01;19.95;;;4.22;;
76292;SDS011;67256;51.154;4.164;2023-02-24T03:32:37;18.38;;;2.53;;
76292;SDS011;67256;51.154;4.164;2023-02-24T03:35:22;11.32;;;2.30;;
76292;SDS011;67256;51.154;4.164;2023-02-24T03:37:58;16.52;;;3.22;;
76292;SDS011;67256;51.154;4.164;2023-02-24T03:40:25;14.63;;;3.13;;
76292;SDS011;67256;51.154;4.164;2023-02-24T03:42:59;13.18;;;3.00;;
76292;SDS011;67256;51.154;4.164;2023-02-24T03:45:37;17.38;;;3.85;;
76292;SDS011;67256;51.154;4.164;2023-02-24T03:48:05;14.65;;;2.63;;
76292;SDS011;67256;51.154;4.164;2023-02-24T03:50:33;14.60;;;3.13;;
76292;SDS011;67256;51.154;4.164;2023-02-24T03:53:12;11.48;;;2.45;;
76292;SDS011;67256;51.154;4.164;2023-02-24T04:00:55;15.03;;;3.37;;
76292;SDS011;67256;51.154;4.164;2023-02-24T04:03:31;18.15;;;3.13;;
76292;SDS011;67256;51.154;4.164;2023-02-24T04:11:35;18.30;;;3.15;;
76292;SDS011;67256;51.154;4.164;2023-02-24T04:14:23;21.95;;;2.80;;
76292;SDS011;67256;51.154;4.164;2023-02-24T04:17:04;14.32;;;2.83;;
76292;SDS011;67256;51.154;4.164;2023-02-24T04:19:43;11.85;;;2.10;;
76292;SDS011;67256;51.154;4.164;2023-02-24T04:22:12;11.98;;;2.63;;
76292;SDS011;67256;51.154;4.164;2023-02-24T04:24:43;11.73;;;2.90;;
76292;SDS011;67256;51.154;4.164;2023-02-24T04:27:13;12.27;;;2.15;;
76292;SDS011;67256;51.154;4.164;2023-02-24T04:29:43;17.90;;;4.18;;
76292;SDS011;67256;51.154;4.164;2023-02-24T04:32:14;14.15;;;2.50;;
76292;SDS011;67256;51.154;4.164;2023-02-24T04:34:43;15.55;;;3.45;;
76292;SDS011;67256;51.154;4.164;2023-02-24T04:37:09;14.77;;;2.90;;
76292;SDS011;67256;51.154;4.164;2023-02-24T04:39:35;12.43;;;2.95;;
76292;SDS011;67256;51.154;4.164;2023-02-24T04:42:02;11.10;;;3.20;;
76292;SDS011;67256;51.154;4.164;2023-02-24T04:44:30;14.27;;;3.65;;
76292;SDS011;67256;51.154;4.164;2023-02-24T04:46:57;13.13;;;2.58;;
76292;SDS011;67256;51.154;4.164;2023-02-24T04:49:23;10.43;;;3.15;;
76292;SDS011;67256;51.154;4.164;2023-02-24T04:51:50;14.73;;;3.60;;
76292;SDS011;67256;51.154;4.164;2023-02-24T04:54:16;15.65;;;3.30;;
76292;SDS011;67256;51.154;4.164;2023-02-24T04:56:45;12.13;;;3.10;;
76292;SDS011;67256;51.154;4.164;2023-02-24T04:59:15;13.38;;;3.47;;
76292;SDS011;67256;51.154;4.164;2023-02-24T05:01:42;12.07;;;3.13;;
76292;SDS011;67256;51.154;4.164;2023-02-24T05:04:09;10.43;;;3.08;;
76292;SDS011;67256;51.154;4.164;2023-02-24T05:06:36;20.33;;;4.13;;
76292;SDS011;67256;51.154;4.164;2023-02-24T05:09:08;12.65;;;3.10;;
76292;SDS011;67256;51.154;4.164;2023-02-24T05:11:41;17.85;;;3.72;;
76292;SDS011;67256;51.154;4.164;2023-02-24T05:14:13;16.17;;;3.75;;
76292;SDS011;67256;51.154;4.164;2023-02-24T05:16:43;16.38;;;4.13;;
76292;SDS011;67256;51.154;4.164;2023-02-24T05:19:11;19.25;;;3.45;;
76292;SDS011;67256;51.154;4.164;2023-02-24T05:21:57;19.40;;;4.10;;
76292;SDS011;67256;51.154;4.164;2023-02-24T05:24:24;9.43;;;2.75;;
76292;SDS011;67256;51.154;4.164;2023-02-24T05:29:23;13.07;;;3.70;;
76292;SDS011;67256;51.154;4.164;2023-02-24T05:31:51;14.30;;;4.57;;
76292;SDS011;67256;51.154;4.164;2023-02-24T05:34:18;9.40;;;3.20;;
76292;SDS011;67256;51.154;4.164;2023-02-24T05:36:45;17.73;;;4.05;;
76292;SDS011;67256;51.154;4.164;2023-02-24T05:39:13;18.58;;;4.07;;
76292;SDS011;67256;51.154;4.164;2023-02-24T05:41:44;17.75;;;4.30;;
76292;SDS011;67256;51.154;4.164;2023-02-24T05:44:16;10.80;;;2.33;;
76292;SDS011;67256;51.154;4.164;2023-02-24T05:46:47;10.90;;;3.05;;
76292;SDS011;67256;51.154;4.164;2023-02-24T05:49:21;18.00;;;4.07;;
76292;SDS011;67256;51.154;4.164;2023-02-24T05:51:48;9.48;;;2.80;;
76292;SDS011;67256;51.154;4.164;2023-02-24T05:54:19;21.17;;;4.28;;
76292;SDS011;67256;51.154;4.164;2023-02-24T05:56:49;15.93;;;2.70;;
76292;SDS011;67256;51.154;4.164;2023-02-24T05:59:15;20.40;;;4.07;;
76292;SDS011;67256;51.154;4.164;2023-02-24T06:04:13;19.88;;;3.92;;
76292;SDS011;67256;51.154;4.164;2023-02-24T06:07:03;11.90;;;3.08;;
76292;SDS011;67256;51.154;4.164;2023-02-24T06:09:29;13.77;;;3.05;;
76292;SDS011;67256;51.154;4.164;2023-02-24T06:11:55;14.68;;;2.92;;
76292;SDS011;67256;51.154;4.164;2023-02-24T06:14:21;14.15;;;3.13;;
76292;SDS011;67256;51.154;4.164;2023-02-24T06:16:47;12.20;;;3.28;;
76292;SDS011;67256;51.154;4.164;2023-02-24T06:19:13;13.98;;;3.38;;
76292;SDS011;67256;51.154;4.164;2023-02-24T06:21:39;17.88;;;3.80;;
76292;SDS011;67256;51.154;4.164;2023-02-24T06:24:08;16.50;;;2.35;;
76292;SDS011;67256;51.154;4.164;2023-02-24T06:26:39;20.05;;;4.35;;
76292;SDS011;67256;51.154;4.164;2023-02-24T06:29:10;18.90;;;3.73;;
76292;SDS011;67256;51.154;4.164;2023-02-24T06:31:40;13.20;;;3.63;;
76292;SDS011;67256;51.154;4.164;2023-02-24T06:34:08;12.93;;;2.78;;
76292;SDS011;67256;51.154;4.164;2023-02-24T06:36:36;17.15;;;3.83;;
76292;SDS011;67256;51.154;4.164;2023-02-24T06:39:02;18.90;;;4.07;;
76292;SDS011;67256;51.154;4.164;2023-02-24T06:41:32;21.80;;;5.18;;
76292;SDS011;67256;51.154;4.164;2023-02-24T06:43:59;19.60;;;3.80;;
76292;SDS011;67256;51.154;4.164;2023-02-24T06:46:25;14.27;;;3.53;;
76292;SDS011;67256;51.154;4.164;2023-02-24T06:48:51;16.23;;;2.90;;
76292;SDS011;67256;51.154;4.164;2023-02-24T06:51:16;16.35;;;3.60;;
76292;SDS011;67256;51.154;4.164;2023-02-24T06:53:42;12.30;;;3.13;;
76292;SDS011;67256;51.154;4.164;2023-02-24T06:58:46;11.38;;;3.40;;
76292;SDS011;67256;51.154;4.164;2023-02-24T07:01:17;20.38;;;3.72;;
76292;SDS011;67256;51.154;4.164;2023-02-24T07:03:45;14.20;;;4.22;;
76292;SDS011;67256;51.154;4.164;2023-02-24T07:06:30;31.13;;;4.65;;
76292;SDS011;67256;51.154;4.164;2023-02-24T07:08:58;15.65;;;4.13;;
76292;SDS011;67256;51.154;4.164;2023-02-24T07:11:28;20.30;;;4.45;;
76292;SDS011;67256;51.154;4.164;2023-02-24T07:13:54;11.35;;;3.47;;
76292;SDS011;67256;51.154;4.164;2023-02-24T07:16:22;17.35;;;4.38;;
76292;SDS011;67256;51.154;4.164;2023-02-24T07:18:52;19.60;;;4.68;;
76292;SDS011;67256;51.154;4.164;2023-02-24T07:21:20;14.18;;;3.65;;
76292;SDS011;67256;51.154;4.164;2023-02-24T07:23:48;17.40;;;4.82;;
76292;SDS011;67256;51.154;4.164;2023-02-24T07:26:14;18.05;;;4.63;;
76292;SDS011;67256;51.154;4.164;2023-02-24T07:28:42;19.63;;;4.95;;
76292;SDS011;67256;51.154;4.164;2023-02-24T07:31:11;22.77;;;4.03;;
76292;SDS011;67256;51.154;4.164;2023-02-24T07:33:38;18.05;;;3.65;;
76292;SDS011;67256;51.154;4.164;2023-02-24T07:36:09;20.40;;;3.78;;
76292;SDS011;67256;51.154;4.164;2023-02-24T07:41:09;19.05;;;4.10;;
76292;SDS011;67256;51.154;4.164;2023-02-24T07:43:37;19.00;;;4.38;;
76292;SDS011;67256;51.154;4.164;2023-02-24T07:46:07;16.95;;;4.28;;
76292;SDS011;67256;51.154;4.164;2023-02-24T07:48:37;15.82;;;3.85;;
76292;SDS011;67256;51.154;4.164;2023-02-24T07:51:08;13.88;;;3.42;;
76292;SDS011;67256;51.154;4.164;2023-02-24T07:53:36;21.30;;;4.05;;
76292;SDS011;67256;51.154;4.164;2023-02-24T07:56:07;13.48;;;3.55;;
76292;SDS011;67256;51.154;4.164;2023-02-24T07:58:41;23.50;;;4.05;;
76292;SDS011;67256;51.154;4.164;2023-02-24T08:01:10;16.65;;;3.85;;
76292;SDS011;67256;51.154;4.164;2023-02-24T08:03:50;19.63;;;4.32;;
76292;SDS011;67256;51.154;4.164;2023-02-24T08:06:20;16.88;;;3.78;;
76292;SDS011;67256;51.154;4.164;2023-02-24T08:09:02;16.27;;;3.50;;
76292;SDS011;67256;51.154;4.164;2023-02-24T08:11:55;14.52;;;3.25;;
76292;SDS011;67256;51.154;4.164;2023-02-24T08:14:25;13.50;;;3.75;;
76292;SDS011;67256;51.154;4.164;2023-02-24T08:16:56;19.08;;;3.90;;
76292;SDS011;67256;51.154;4.164;2023-02-24T08:19:24;16.33;;;3.60;;
76292;SDS011;67256;51.154;4.164;2023-02-24T08:21:57;14.45;;;3.33;;
76292;SDS011;67256;51.154;4.164;2023-02-24T08:24:43;16.17;;;3.70;;
76292;SDS011;67256;51.154;4.164;2023-02-24T08:27:18;23.80;;;4.38;;
76292;SDS011;67256;51.154;4.164;2023-02-24T08:29:49;17.50;;;3.70;;
76292;SDS011;67256;51.154;4.164;2023-02-24T08:32:25;17.88;;;3.22;;
76292;SDS011;67256;51.154;4.164;2023-02-24T08:35:10;17.83;;;3.03;;
76292;SDS011;67256;51.154;4.164;2023-02-24T08:37:47;14.65;;;3.88;;
76292;SDS011;67256;51.154;4.164;2023-02-24T08:40:15;16.55;;;3.25;;
76292;SDS011;67256;51.154;4.164;2023-02-24T08:45:40;18.08;;;2.50;;
76292;SDS011;67256;51.154;4.164;2023-02-24T08:48:09;17.95;;;2.42;;
76292;SDS011;67256;51.154;4.164;2023-02-24T08:50:56;13.70;;;3.55;;
76292;SDS011;67256;51.154;4.164;2023-02-24T08:53:25;16.63;;;2.90;;
76292;SDS011;67256;51.154;4.164;2023-02-24T08:55:56;13.82;;;3.10;;
76292;SDS011;67256;51.154;4.164;2023-02-24T08:58:24;18.48;;;3.50;;
76292;SDS011;67256;51.154;4.164;2023-02-24T09:00:56;14.15;;;3.67;;
76292;SDS011;67256;51.154;4.164;2023-02-24T09:03:26;18.98;;;3.65;;
76292;SDS011;67256;51.154;4.164;2023-02-24T09:08:31;18.88;;;4.30;;
76292;SDS011;67256;51.154;4.164;2023-02-24T09:10:58;21.92;;;4.68;;
76292;SDS011;67256;51.154;4.164;2023-02-24T09:13:26;20.88;;;4.00;;
76292;SDS011;67256;51.154;4.164;2023-02-24T09:16:00;13.48;;;2.75;;
76292;SDS011;67256;51.154;4.164;2023-02-24T09:18:28;15.07;;;2.80;;
76292;SDS011;67256;51.154;4.164;2023-02-24T09:20:56;7.47;;;3.15;;
76292;SDS011;67256;51.154;4.164;2023-02-24T09:23:40;21.55;;;3.90;;
76292;SDS011;67256;51.154;4.164;2023-02-24T09:26:12;8.68;;;2.72;;
76292;SDS011;67256;51.154;4.164;2023-02-24T09:28:38;9.70;;;2.63;;
76292;SDS011;67256;51.154;4.164;2023-02-24T09:31:19;13.80;;;2.95;;
76292;SDS011;67256;51.154;4.164;2023-02-24T09:33:48;12.48;;;3.42;;
76292;SDS011;67256;51.154;4.164;2023-02-24T09:36:17;15.45;;;3.85;;
76292;SDS011;67256;51.154;4.164;2023-02-24T09:38:52;12.95;;;2.90;;
76292;SDS011;67256;51.154;4.164;2023-02-24T09:44:26;15.02;;;3.42;;
76292;SDS011;67256;51.154;4.164;2023-02-24T09:50:12;12.68;;;2.85;;
76292;SDS011;67256;51.154;4.164;2023-02-24T09:52:49;11.57;;;3.35;;
76292;SDS011;67256;51.154;4.164;2023-02-24T10:04:21;10.73;;;3.08;;
76292;SDS011;67256;51.154;4.164;2023-02-24T10:09:40;13.52;;;3.25;;
76292;SDS011;67256;51.154;4.164;2023-02-24T10:14:53;14.82;;;3.25;;
76292;SDS011;67256;51.154;4.164;2023-02-24T10:17:56;11.93;;;3.53;;
76292;SDS011;67256;51.154;4.164;2023-02-24T10:20:35;17.35;;;4.22;;
76292;SDS011;67256;51.154;4.164;2023-02-24T10:23:06;14.30;;;3.92;;
76292;SDS011;67256;51.154;4.164;2023-02-24T10:25:45;22.20;;;5.90;;
76292;SDS011;67256;51.154;4.164;2023-02-24T10:33:49;14.40;;;3.53;;
76292;SDS011;67256;51.154;4.164;2023-02-24T10:36:21;14.50;;;4.15;;
76292;SDS011;67256;51.154;4.164;2023-02-24T10:39:00;15.60;;;3.30;;
76292;SDS011;67256;51.154;4.164;2023-02-24T10:41:41;15.25;;;4.80;;
76292;SDS011;67256;51.154;4.164;2023-02-24T10:44:10;13.40;;;4.90;;
76292;SDS011;67256;51.154;4.164;2023-02-24T10:46:43;17.10;;;4.25;;
76292;SDS011;67256;51.154;4.164;2023-02-24T10:49:09;13.82;;;4.10;;
76292;SDS011;67256;51.154;4.164;2023-02-24T10:51:40;15.10;;;3.60;;
76292;SDS011;67256;51.154;4.164;2023-02-24T10:57:04;15.98;;;4.65;;
76292;SDS011;67256;51.154;4.164;2023-02-24T10:59:42;14.82;;;4.38;;
76292;SDS011;67256;51.154;4.164;2023-02-24T11:03:05;13.68;;;3.67;;
76292;SDS011;67256;51.154;4.164;2023-02-24T11:05:39;22.13;;;5.00;;
76292;SDS011;67256;51.154;4.164;2023-02-24T11:08:25;13.52;;;4.68;;
76292;SDS011;67256;51.154;4.164;2023-02-24T11:11:30;14.77;;;4.40;;
76292;SDS011;67256;51.154;4.164;2023-02-24T11:14:18;15.77;;;4.45;;
76292;SDS011;67256;51.154;4.164;2023-02-24T11:17:03;16.33;;;4.65;;
76292;SDS011;67256;51.154;4.164;2023-02-24T11:22:16;10.93;;;4.05;;
76292;SDS011;67256;51.154;4.164;2023-02-24T11:24:49;14.40;;;4.03;;
76292;SDS011;67256;51.154;4.164;2023-02-24T11:27:20;15.85;;;3.78;;
76292;SDS011;67256;51.154;4.164;2023-02-24T11:30:08;9.77;;;3.10;;
76292;SDS011;67256;51.154;4.164;2023-02-24T11:35:43;10.63;;;3.67;;
76292;SDS011;67256;51.154;4.164;2023-02-24T11:41:41;16.73;;;4.38;;
76292;SDS011;67256;51.154;4.164;2023-02-24T11:47:13;11.25;;;3.20;;
76292;SDS011;67256;51.154;4.164;2023-02-24T11:49:44;17.40;;;4.40;;
76292;SDS011;67256;51.154;4.164;2023-02-24T11:52:21;18.92;;;4.47;;
76292;SDS011;67256;51.154;4.164;2023-02-24T11:54:53;13.80;;;4.28;;
76292;SDS011;67256;51.154;4.164;2023-02-24T11:57:44;12.02;;;3.88;;
76292;SDS011;67256;51.154;4.164;2023-02-24T12:00:18;16.73;;;4.80;;
76292;SDS011;67256;51.154;4.164;2023-02-24T12:03:00;22.08;;;5.70;;
76292;SDS011;67256;51.154;4.164;2023-02-24T12:05:36;14.77;;;4.70;;
76292;SDS011;67256;51.154;4.164;2023-02-24T12:10:52;15.70;;;5.40;;
76292;SDS011;67256;51.154;4.164;2023-02-24T12:13:28;16.55;;;4.85;;
76292;SDS011;67256;51.154;4.164;2023-02-24T12:16:23;21.25;;;5.25;;
76292;SDS011;67256;51.154;4.164;2023-02-24T12:18:59;20.58;;;5.53;;
76292;SDS011;67256;51.154;4.164;2023-02-24T12:21:30;17.38;;;5.28;;
76292;SDS011;67256;51.154;4.164;2023-02-24T12:24:07;17.77;;;5.82;;
76292;SDS011;67256;51.154;4.164;2023-02-24T12:26:53;21.10;;;5.82;;
76292;SDS011;67256;51.154;4.164;2023-02-24T12:29:59;19.40;;;7.28;;
76292;SDS011;67256;51.154;4.164;2023-02-24T12:35:21;19.10;;;5.95;;
76292;SDS011;67256;51.154;4.164;2023-02-24T12:37:58;16.23;;;5.45;;
76292;SDS011;67256;51.154;4.164;2023-02-24T12:57:34;17.25;;;5.05;;
76292;SDS011;67256;51.154;4.164;2023-02-24T13:00:15;16.60;;;5.45;;
76292;SDS011;67256;51.154;4.164;2023-02-24T13:02:47;16.08;;;5.22;;
76292;SDS011;67256;51.154;4.164;2023-02-24T13:05:28;12.82;;;5.60;;
76292;SDS011;67256;51.154;4.164;2023-02-24T13:16:12;16.27;;;6.72;;
76292;SDS011;67256;51.154;4.164;2023-02-24T13:18:38;16.90;;;7.72;;
76292;SDS011;67256;51.154;4.164;2023-02-24T13:23:40;20.13;;;8.48;;
76292;SDS011;67256;51.154;4.164;2023-02-24T13:26:21;21.60;;;7.63;;
76292;SDS011;67256;51.154;4.164;2023-02-24T13:29:11;14.55;;;7.18;;
76292;SDS011;67256;51.154;4.164;2023-02-24T13:31:39;15.00;;;7.20;;
76292;SDS011;67256;51.154;4.164;2023-02-24T13:39:33;13.80;;;7.57;;
76292;SDS011;67256;51.154;4.164;2023-02-24T13:42:22;14.77;;;7.25;;
76292;SDS011;67256;51.154;4.164;2023-02-24T13:44:52;17.92;;;8.65;;
76292;SDS011;67256;51.154;4.164;2023-02-24T13:52:33;12.93;;;8.27;;
76292;SDS011;67256;51.154;4.164;2023-02-24T14:02:56;11.48;;;7.68;;
76292;SDS011;67256;51.154;4.164;2023-02-24T14:05:25;13.52;;;8.57;;
76292;SDS011;67256;51.154;4.164;2023-02-24T14:07:51;14.50;;;7.80;;
76292;SDS011;67256;51.154;4.164;2023-02-24T14:10:19;10.82;;;7.70;;
76292;SDS011;67256;51.154;4.164;2023-02-24T14:12:49;8.45;;;6.30;;
76292;SDS011;67256;51.154;4.164;2023-02-24T14:15:26;9.23;;;6.82;;
76292;SDS011;67256;51.154;4.164;2023-02-24T14:17:57;12.27;;;7.82;;
76292;SDS011;67256;51.154;4.164;2023-02-24T14:20:25;9.60;;;6.57;;
76292;SDS011;67256;51.154;4.164;2023-02-24T14:22:55;11.18;;;7.43;;
76292;SDS011;67256;51.154;4.164;2023-02-24T14:25:24;11.63;;;7.00;;
76292;SDS011;67256;51.154;4.164;2023-02-24T14:27:54;10.90;;;7.47;;
76292;SDS011;67256;51.154;4.164;2023-02-24T14:30:22;12.98;;;8.45;;
76292;SDS011;67256;51.154;4.164;2023-02-24T14:32:50;15.55;;;8.68;;
76292;SDS011;67256;51.154;4.164;2023-02-24T14:35:25;14.38;;;8.57;;
76292;SDS011;67256;51.154;4.164;2023-02-24T14:37:57;16.60;;;9.07;;
76292;SDS011;67256;51.154;4.164;2023-02-24T14:40:23;15.40;;;8.02;;
76292;SDS011;67256;51.154;4.164;2023-02-24T14:42:50;16.90;;;8.93;;
76292;SDS011;67256;51.154;4.164;2023-02-24T14:45:19;18.00;;;9.35;;
76292;SDS011;67256;51.154;4.164;2023-02-24T14:47:49;16.85;;;9.18;;
76292;SDS011;67256;51.154;4.164;2023-02-24T14:50:17;17.77;;;10.65;;
76292;SDS011;67256;51.154;4.164;2023-02-24T14:55:26;13.70;;;9.10;;
76292;SDS011;67256;51.154;4.164;2023-02-24T14:58:12;14.90;;;9.23;;
76292;SDS011;67256;51.154;4.164;2023-02-24T15:00:40;16.15;;;8.98;;
76292;SDS011;67256;51.154;4.164;2023-02-24T15:05:49;14.98;;;9.02;;
76292;SDS011;67256;51.154;4.164;2023-02-24T15:10:50;20.15;;;9.77;;
76292;SDS011;67256;51.154;4.164;2023-02-24T15:13:34;17.15;;;10.15;;
76292;SDS011;67256;51.154;4.164;2023-02-24T15:19:16;18.80;;;10.40;;
76292;SDS011;67256;51.154;4.164;2023-02-24T15:21:55;17.48;;;8.80;;
76292;SDS011;67256;51.154;4.164;2023-02-24T15:24:28;16.80;;;9.50;;
76292;SDS011;67256;51.154;4.164;2023-02-24T15:27:30;18.38;;;8.93;;
76292;SDS011;67256;51.154;4.164;2023-02-24T15:30:06;20.85;;;9.98;;
76292;SDS011;67256;51.154;4.164;2023-02-24T15:32:48;20.55;;;10.30;;
76292;SDS011;67256;51.154;4.164;2023-02-24T15:35:50;19.90;;;9.85;;
76292;SDS011;67256;51.154;4.164;2023-02-24T15:38:31;19.15;;;9.02;;
76292;SDS011;67256;51.154;4.164;2023-02-24T15:41:01;18.60;;;9.50;;
76292;SDS011;67256;51.154;4.164;2023-02-24T15:48:43;21.20;;;8.80;;
76292;SDS011;67256;51.154;4.164;2023-02-24T15:51:17;24.98;;;8.32;;
76292;SDS011;67256;51.154;4.164;2023-02-24T15:53:51;27.25;;;8.52;;
76292;SDS011;67256;51.154;4.164;2023-02-24T15:56:17;22.70;;;7.88;;
76292;SDS011;67256;51.154;4.164;2023-02-24T15:58:44;25.33;;;7.25;;
76292;SDS011;67256;51.154;4.164;2023-02-24T16:01:10;18.55;;;7.95;;
76292;SDS011;67256;51.154;4.164;2023-02-24T16:03:37;26.02;;;9.23;;
76292;SDS011;67256;51.154;4.164;2023-02-24T16:06:03;33.75;;;7.90;;
76292;SDS011;67256;51.154;4.164;2023-02-24T16:08:30;16.52;;;3.70;;
76292;SDS011;67256;51.154;4.164;2023-02-24T16:10:57;15.48;;;3.88;;
76292;SDS011;67256;51.154;4.164;2023-02-24T16:13:23;17.00;;;3.65;;
76292;SDS011;67256;51.154;4.164;2023-02-24T16:15:50;14.50;;;2.90;;
76292;SDS011;67256;51.154;4.164;2023-02-24T16:18:18;15.25;;;3.05;;
76292;SDS011;67256;51.154;4.164;2023-02-24T16:20:46;11.97;;;2.57;;
76292;SDS011;67256;51.154;4.164;2023-02-24T16:23:18;10.10;;;2.83;;
76292;SDS011;67256;51.154;4.164;2023-02-24T16:25:49;17.08;;;3.17;;
76292;SDS011;67256;51.154;4.164;2023-02-24T16:30:45;17.10;;;4.32;;
76292;SDS011;67256;51.154;4.164;2023-02-24T16:33:13;20.00;;;3.88;;
76292;SDS011;67256;51.154;4.164;2023-02-24T16:35:41;23.92;;;4.80;;
76292;SDS011;67256;51.154;4.164;2023-02-24T16:38:15;15.60;;;3.65;;
76292;SDS011;67256;51.154;4.164;2023-02-24T16:40:43;23.15;;;4.20;;
76292;SDS011;67256;51.154;4.164;2023-02-24T16:43:11;26.03;;;4.83;;
76292;SDS011;67256;51.154;4.164;2023-02-24T16:45:37;36.65;;;4.63;;
76292;SDS011;67256;51.154;4.164;2023-02-24T16:48:11;20.35;;;4.25;;
76292;SDS011;67256;51.154;4.164;2023-02-24T16:50:49;21.25;;;4.47;;
76292;SDS011;67256;51.154;4.164;2023-02-24T16:53:16;23.20;;;4.47;;
76292;SDS011;67256;51.154;4.164;2023-02-24T16:55:44;25.23;;;4.18;;
76292;SDS011;67256;51.154;4.164;2023-02-24T16:58:11;21.95;;;4.50;;
76292;SDS011;67256;51.154;4.164;2023-02-24T17:00:38;30.30;;;5.18;;
76292;SDS011;67256;51.154;4.164;2023-02-24T17:03:06;17.10;;;4.25;;
76292;SDS011;67256;51.154;4.164;2023-02-24T17:05:57;13.18;;;3.88;;
76292;SDS011;67256;51.154;4.164;2023-02-24T17:08:23;15.73;;;3.72;;
76292;SDS011;67256;51.154;4.164;2023-02-24T17:10:49;17.20;;;3.20;;
76292;SDS011;67256;51.154;4.164;2023-02-24T17:13:17;16.23;;;3.03;;
76292;SDS011;67256;51.154;4.164;2023-02-24T17:15:45;15.75;;;4.03;;
76292;SDS011;67256;51.154;4.164;2023-02-24T17:18:11;18.85;;;5.40;;
76292;SDS011;67256;51.154;4.164;2023-02-24T17:20:38;13.38;;;2.95;;
76292;SDS011;67256;51.154;4.164;2023-02-24T17:23:04;14.63;;;2.80;;
76292;SDS011;67256;51.154;4.164;2023-02-24T17:25:31;15.73;;;3.10;;
76292;SDS011;67256;51.154;4.164;2023-02-24T17:27:58;15.50;;;2.78;;
76292;SDS011;67256;51.154;4.164;2023-02-24T17:30:25;10.00;;;2.40;;
76292;SDS011;67256;51.154;4.164;2023-02-24T17:32:53;15.18;;;3.22;;
76292;SDS011;67256;51.154;4.164;2023-02-24T17:35:19;14.30;;;2.63;;
76292;SDS011;67256;51.154;4.164;2023-02-24T17:37:45;12.25;;;2.55;;
76292;SDS011;67256;51.154;4.164;2023-02-24T17:40:11;9.25;;;3.00;;
76292;SDS011;67256;51.154;4.164;2023-02-24T17:42:37;9.40;;;2.70;;
76292;SDS011;67256;51.154;4.164;2023-02-24T17:45:04;14.95;;;2.78;;
76292;SDS011;67256;51.154;4.164;2023-02-24T17:47:30;11.68;;;2.63;;
76292;SDS011;67256;51.154;4.164;2023-02-24T17:49:58;11.45;;;2.45;;
76292;SDS011;67256;51.154;4.164;2023-02-24T17:52:24;15.68;;;3.08;;
76292;SDS011;67256;51.154;4.164;2023-02-24T17:54:50;15.88;;;2.55;;
76292;SDS011;67256;51.154;4.164;2023-02-24T17:57:16;15.32;;;3.05;;
76292;SDS011;67256;51.154;4.164;2023-02-24T17:59:42;18.90;;;4.30;;
76292;SDS011;67256;51.154;4.164;2023-02-24T18:02:13;16.45;;;4.65;;